Arlington, VT

2:54 AM EST on January 30, 2015 (GMT -0500)
Base of Red Mountain | Change Station
CLOSE
Current Station
Personal Weather Station
Location: Arlington, VT
Elevation: 867 ft
Nearby Weather Stations
Active Advisory: Winter Weather Advisory

Elev 867 ft 43.10 °N, 73.19 °W | Updated 4 minutes ago

Snow
Snow
28.8 °F
Feels Like 29 °F
N
1.0
Wind Variable Wind from SSE
Gusts 5.0 mph

Today
High -- | Low -- °F
--% Chance of Precip.
Yesterday
High -- | Low -- °F
Precip. -- in
7:10 AM 5:02 PM
Waxing Gibbous, 81% visible
Pressure 29.83 in
Visibility 5.0 miles
Clouds Overcast 2400 ft
Windchill 29 °F
Dew Point 25 °F
Humidity 85%
Rainfall -999.00 in
Snow Depth Not available.
UV 0 out of 12
Pollen .10 out of 12
Air Quality Not available.
Flu Activity Not available.
SPECI KDDH 300725Z AUTO 00000KT 5SM -SN OVC024 M01/M04 A2983 RMK AO2 P0001 T10111044

More Conditions Fewer Conditions

Pressure 29.83 in
Visibility 5.0 miles
Clouds Overcast 2400 ft
Windchill 29 °F
Dew Point 25 °F
Humidity 85%
Rainfall -999.00 in
Snow Depth Not available.
UV 0 out of 12
Pollen .10 out of 12
Air Quality Not available.
Flu Activity Not available.
SPECI KDDH 300725Z AUTO 00000KT 5SM -SN OVC024 M01/M04 A2983 RMK AO2 P0001 T10111044

More Conditions Fewer Conditions

10-Day Weather Forecast

Almanac

Astronomy

Jan. 30, 2015 Rise Set
Actual Time
Civil Twilight
Nautical Twilight
Astronomical Twilight
Moon
Length of Visible Light
Length of Day
Tomorrow will be .
, % of the Moon is Illuminated

Today's Extremes

State Highs State Lows

Community

WunderPhotos

Upload Photos

1,791,726 photos uploaded!

WunderBlogs® & News

Nearby

Air Quality

  Air Quality AQ Index Pollutant
Not available.

Snow Depth

Station Depth Elevation

Earthquake Activity

City Distance Mag. Time & Date
Minimum magnitude displayed is 2.5.

Coastal Water Temperatures

Place Temperature

Nearby Weather Stations